Time;durP1;ratioP1;P1;durP2;ratioP2;P2;SDS_P1;SDS_P2;PMS_P1;PMS_P2;Temp;Humidity;BMP_temperature;BMP_pressure;BME280_temperature;BME280_humidity;BME280_pressure;Samples;Min_cycle;Max_cycle;Signal;HPM_P1;HPM_P2
2023/06/17 00:01:32;;;;;;;23.52;21.13;;;19.10;99.90;;;;;;5083651;28;20191;-77
2023/06/17 00:04:21;;;;;;;23.23;20.75;;;19.10;99.90;;;;;;5073582;28;20183;-77
2023/06/17 00:07:10;;;;;;;23.00;20.70;;;19.00;99.90;;;;;;5071216;28;20208;-78
2023/06/17 00:10:00;;;;;;;26.17;20.50;;;18.90;99.90;;;;;;5068994;28;20279;-76
2023/06/17 00:12:49;;;;;;;22.83;19.83;;;18.90;99.90;;;;;;5075415;28;20820;-77
2023/06/17 00:15:38;;;;;;;23.33;20.27;;;18.70;99.90;;;;;;5092201;28;20222;-76
2023/06/17 00:18:28;;;;;;;22.77;20.10;;;18.50;99.90;;;;;;5079125;28;20183;-77
2023/06/17 00:21:17;;;;;;;23.38;19.02;;;18.40;99.90;;;;;;5070161;28;20211;-79
2023/06/17 00:24:06;;;;;;;22.55;20.23;;;18.30;99.90;;;;;;5065813;28;20200;-77
2023/06/17 00:26:56;;;;;;;21.80;19.02;;;18.40;99.90;;;;;;5083511;28;20375;-78
2023/06/17 00:29:45;;;;;;;17.38;15.57;;;18.10;99.90;;;;;;5085205;28;20218;-77
2023/06/17 00:32:36;;;;;;;18.00;16.25;;;17.90;99.90;;;;;;5079297;28;20356;-77
2023/06/17 00:35:25;;;;;;;19.67;17.60;;;17.80;99.90;;;;;;5074187;28;20349;-76
2023/06/17 00:38:14;;;;;;;20.23;17.33;;;18.00;99.90;;;;;;5073342;28;20191;-76
2023/06/17 00:41:02;;;;;;;17.45;15.60;;;18.00;99.90;;;;;;5076388;28;20197;-77
2023/06/17 00:43:53;;;;;;;16.52;14.88;;;18.00;99.90;;;;;;5076900;28;20204;-77
2023/06/17 00:46:44;;;;;;;16.98;15.27;;;18.00;99.90;;;;;;5080007;28;20200;-77
2023/06/17 00:49:36;;;;;;;14.40;12.82;;;18.00;99.90;;;;;;5088143;28;20733;-77
2023/06/17 00:52:26;;;;;;;13.18;11.98;;;17.80;99.90;;;;;;5074054;28;20191;-77
2023/06/17 00:55:30;;;;;;;13.43;12.13;;;17.70;99.90;;;;;;5068270;28;20196;-77
2023/06/17 00:58:19;;;;;;;14.27;12.88;;;17.90;99.90;;;;;;5085986;28;20796;-78
2023/06/17 01:01:10;;;;;;;14.80;12.75;;;17.80;99.90;;;;;;5075392;28;20553;-76
2023/06/17 01:04:00;;;;;;;12.80;11.50;;;17.90;99.90;;;;;;5063223;28;20200;-76
2023/06/17 01:06:55;;;;;;;14.05;11.77;;;17.70;99.90;;;;;;5080639;28;20192;-76
2023/06/17 01:09:51;;;;;;;13.98;12.38;;;17.70;99.90;;;;;;5087591;28;20261;-76
2023/06/17 01:12:42;;;;;;;15.18;13.45;;;17.90;99.90;;;;;;5072137;28;20385;-77
2023/06/17 01:15:33;;;;;;;14.00;12.50;;;17.70;99.90;;;;;;5054634;28;20213;-77
2023/06/17 01:18:24;;;;;;;12.15;10.73;;;17.80;99.90;;;;;;5077497;28;20192;-78
2023/06/17 01:21:13;;;;;;;12.45;10.52;;;17.80;99.90;;;;;;5071845;28;20675;-76
2023/06/17 01:24:04;;;;;;;10.43;9.32;;;17.90;99.90;;;;;;5072528;28;20332;-77
2023/06/17 01:26:56;;;;;;;9.38;7.60;;;17.50;99.90;;;;;;5079186;28;20202;-77
2023/06/17 01:29:48;;;;;;;7.25;6.55;;;17.40;99.90;;;;;;5087047;28;20220;-77
2023/06/17 01:32:38;;;;;;;7.35;6.55;;;17.40;99.90;;;;;;5062350;28;20342;-76
2023/06/17 01:35:32;;;;;;;8.40;6.70;;;17.50;99.90;;;;;;5073413;28;20188;-76
2023/06/17 01:38:26;;;;;;;8.32;6.65;;;17.40;99.90;;;;;;5074627;28;20211;-77
2023/06/17 01:41:18;;;;;;;7.65;6.88;;;17.50;99.90;;;;;;5067596;28;20566;-77
2023/06/17 01:44:10;;;;;;;7.85;6.68;;;17.50;99.90;;;;;;5083749;28;20210;-76
2023/06/17 01:46:59;;;;;;;8.20;6.88;;;17.50;99.90;;;;;;5060849;28;20675;-76
2023/06/17 01:49:48;;;;;;;8.45;7.10;;;17.30;99.90;;;;;;5062652;28;20216;-77
2023/06/17 01:52:37;;;;;;;7.97;7.28;;;17.30;99.90;;;;;;5072048;28;20571;-76
2023/06/17 01:55:25;;;;;;;8.15;7.35;;;17.10;99.90;;;;;;5070592;28;20769;-80
2023/06/17 01:58:16;;;;;;;8.60;7.70;;;17.10;99.90;;;;;;5080399;28;20781;-77
2023/06/17 02:01:06;;;;;;;8.98;8.05;;;17.10;99.90;;;;;;5083643;28;20253;-76
2023/06/17 02:03:55;;;;;;;10.10;7.30;;;17.20;99.90;;;;;;5083884;28;20187;-78
2023/06/17 02:06:45;;;;;;;7.40;6.75;;;17.00;99.90;;;;;;5076396;28;20188;-76
2023/06/17 02:09:34;;;;;;;8.77;6.72;;;16.90;99.90;;;;;;5073830;28;20960;-77
2023/06/17 02:12:23;;;;;;;8.23;6.97;;;16.90;99.90;;;;;;5091714;28;20215;-77
2023/06/17 02:15:12;;;;;;;6.85;6.15;;;16.90;99.90;;;;;;5078803;28;20188;-77
2023/06/17 02:18:02;;;;;;;8.98;6.85;;;17.10;99.90;;;;;;5083362;28;20200;-77
2023/06/17 02:20:52;;;;;;;6.93;6.28;;;17.20;99.90;;;;;;5090529;28;20196;-77
2023/06/17 02:23:41;;;;;;;6.45;5.85;;;17.30;99.90;;;;;;5071006;28;20702;-76
2023/06/17 02:26:31;;;;;;;7.70;6.22;;;17.20;99.90;;;;;;5073697;28;20203;-73
2023/06/17 02:29:20;;;;;;;7.45;5.53;;;17.20;99.90;;;;;;5071180;28;20203;-73
2023/06/17 02:32:09;;;;;;;5.88;5.00;;;17.10;99.90;;;;;;5062214;28;20628;-72
2023/06/17 02:35:02;;;;;;;6.60;5.55;;;16.90;99.90;;;;;;5069784;28;20858;-73
2023/06/17 02:37:51;;;;;;;5.00;4.53;;;17.00;99.90;;;;;;5084705;28;20206;-73
2023/06/17 02:40:40;;;;;;;6.43;5.00;;;16.90;99.90;;;;;;5071691;28;20188;-72
2023/06/17 02:43:30;;;;;;;5.22;4.72;;;17.00;99.90;;;;;;5080062;28;20180;-72
2023/06/17 02:46:18;;;;;;;5.20;4.72;;;17.00;99.90;;;;;;5076340;28;20274;-72
2023/06/17 02:49:07;;;;;;;6.03;5.13;;;17.00;99.90;;;;;;5077675;28;20536;-72
2023/06/17 02:51:58;;;;;;;6.05;5.10;;;17.00;99.90;;;;;;5082468;28;20222;-73
2023/06/17 02:54:47;;;;;;;5.03;4.53;;;17.10;99.90;;;;;;5051883;28;20226;-73
2023/06/17 02:57:40;;;;;;;5.60;5.03;;;17.00;99.90;;;;;;5068472;28;20192;-73
2023/06/17 03:00:28;;;;;;;5.38;4.82;;;17.00;99.90;;;;;;5066504;28;20242;-74
2023/06/17 03:03:17;;;;;;;5.72;5.15;;;17.00;99.90;;;;;;5071727;28;20204;-72
2023/06/17 03:06:07;;;;;;;8.68;5.20;;;17.10;99.90;;;;;;5070835;28;20316;-73
2023/06/17 03:09:00;;;;;;;7.32;4.78;;;17.10;99.90;;;;;;5078943;28;20188;-73
2023/06/17 03:11:49;;;;;;;5.40;4.90;;;17.00;99.90;;;;;;5080417;28;20701;-73
2023/06/17 03:14:38;;;;;;;5.35;4.78;;;17.00;99.90;;;;;;5072374;28;20192;-72
2023/06/17 03:17:31;;;;;;;6.25;5.65;;;17.00;99.90;;;;;;5064030;28;20192;-74
2023/06/17 03:20:28;;;;;;;5.72;5.10;;;17.10;99.90;;;;;;5070246;28;20203;-74
2023/06/17 03:23:20;;;;;;;6.47;5.88;;;17.10;99.90;;;;;;5070258;28;20191;-73
2023/06/17 03:26:10;;;;;;;5.95;5.45;;;17.10;99.90;;;;;;5073947;28;20289;-74
2023/06/17 03:28:59;;;;;;;6.95;6.20;;;17.00;99.90;;;;;;5070636;28;20556;-73
2023/06/17 03:31:48;;;;;;;6.10;5.50;;;17.10;99.90;;;;;;5069129;28;20298;-72
2023/06/17 03:34:37;;;;;;;6.93;6.22;;;17.10;99.90;;;;;;5071621;28;20187;-77
2023/06/17 03:37:30;;;;;;;8.15;6.13;;;17.10;99.90;;;;;;5068413;28;20188;-72
2023/06/17 03:40:19;;;;;;;7.13;5.68;;;17.10;99.90;;;;;;5069213;28;20274;-74
2023/06/17 03:43:10;;;;;;;7.38;6.50;;;17.20;99.90;;;;;;5069427;28;20242;-72
2023/06/17 03:45:58;;;;;;;8.05;6.70;;;17.20;99.90;;;;;;5077561;28;20218;-72
2023/06/17 03:48:47;;;;;;;9.25;6.70;;;17.10;99.90;;;;;;5091401;28;20280;-72
2023/06/17 03:51:37;;;;;;;8.15;6.28;;;17.20;99.90;;;;;;5062701;28;20208;-72
2023/06/17 03:54:26;;;;;;;7.75;6.93;;;17.30;99.90;;;;;;5082778;28;20196;-77
2023/06/17 03:57:17;;;;;;;7.88;7.07;;;17.30;99.90;;;;;;5072056;28;20409;-77
2023/06/17 04:00:10;;;;;;;10.05;7.00;;;17.10;99.90;;;;;;5070218;28;20200;-72
2023/06/17 04:03:06;;;;;;;8.30;7.10;;;17.20;99.90;;;;;;5077643;28;20198;-72
2023/06/17 04:05:55;;;;;;;7.72;6.90;;;17.30;99.90;;;;;;5080596;28;20673;-72
2023/06/17 04:08:44;;;;;;;8.35;7.50;;;17.20;99.90;;;;;;5078125;28;20190;-73
2023/06/17 04:11:34;;;;;;;8.55;7.70;;;17.20;99.90;;;;;;5072248;28;20352;-71
2023/06/17 04:14:23;;;;;;;9.10;7.90;;;17.30;99.90;;;;;;5080608;28;20706;-73
2023/06/17 04:17:17;;;;;;;9.70;8.80;;;17.20;99.90;;;;;;5084070;28;20662;-72
2023/06/17 04:20:10;;;;;;;9.32;8.43;;;17.30;99.90;;;;;;5078008;28;20234;-73
2023/06/17 04:23:00;;;;;;;10.35;9.25;;;17.40;99.90;;;;;;5074389;28;20179;-75
2023/06/17 04:25:50;;;;;;;11.25;10.15;;;17.40;99.90;;;;;;5082187;28;20191;-74
2023/06/17 04:28:39;;;;;;;10.30;9.30;;;17.50;99.90;;;;;;5065878;28;20266;-73
2023/06/17 04:31:28;;;;;;;10.45;9.35;;;17.40;99.90;;;;;;5066240;28;20800;-74
2023/06/17 04:34:22;;;;;;;10.25;9.18;;;17.40;99.90;;;;;;5077957;28;20770;-72
2023/06/17 04:37:15;;;;;;;10.88;9.52;;;17.40;99.90;;;;;;5086859;28;20543;-72
2023/06/17 04:40:10;;;;;;;11.18;9.98;;;17.40;99.90;;;;;;5087274;28;20200;-74
2023/06/17 04:42:59;;;;;;;10.48;9.48;;;17.60;99.90;;;;;;5057977;28;20191;-74
2023/06/17 04:45:48;;;;;;;11.82;10.52;;;17.70;99.90;;;;;;5079000;28;20200;-74
2023/06/17 04:48:38;;;;;;;11.82;10.50;;;17.70;99.90;;;;;;5066183;28;20210;-75
2023/06/17 04:51:29;;;;;;;11.38;10.27;;;17.80;99.90;;;;;;5076205;28;20527;-74
2023/06/17 04:54:18;;;;;;;13.05;10.23;;;17.80;99.90;;;;;;5072185;28;20678;-74
2023/06/17 04:57:08;;;;;;;16.20;12.25;;;17.90;99.90;;;;;;5062143;28;20671;-74
2023/06/17 04:59:57;;;;;;;14.52;11.43;;;18.00;99.90;;;;;;5091033;28;20689;-75
2023/06/17 05:02:46;;;;;;;15.82;12.05;;;18.10;99.90;;;;;;5076413;28;20345;-73
2023/06/17 05:05:35;;;;;;;14.95;12.40;;;18.20;99.90;;;;;;5069827;28;20196;-73
2023/06/17 05:08:26;;;;;;;15.25;12.73;;;18.30;99.90;;;;;;5070231;28;20719;-73
2023/06/17 05:11:15;;;;;;;14.18;12.25;;;18.40;99.90;;;;;;5079294;28;20654;-73
2023/06/17 05:14:04;;;;;;;17.98;13.85;;;18.40;99.90;;;;;;5074959;28;20708;-73
2023/06/17 05:16:53;;;;;;;19.42;13.60;;;18.50;99.90;;;;;;5079246;28;20201;-73
2023/06/17 05:19:42;;;;;;;17.80;13.95;;;18.70;99.90;;;;;;5076870;28;20195;-73
2023/06/17 05:22:31;;;;;;;15.55;12.05;;;18.80;99.90;;;;;;5080927;28;20199;-73
2023/06/17 05:25:21;;;;;;;17.67;12.70;;;18.70;99.90;;;;;;5083750;28;20200;-73
2023/06/17 05:28:10;;;;;;;16.13;12.07;;;18.80;99.90;;;;;;5086071;28;20251;-73
2023/06/17 05:30:59;;;;;;;13.93;12.05;;;18.80;99.90;;;;;;5081410;28;20827;-74
2023/06/17 05:33:48;;;;;;;15.23;11.30;;;18.80;99.90;;;;;;5081568;28;20246;-73
2023/06/17 05:36:37;;;;;;;13.65;11.60;;;18.90;99.90;;;;;;5076258;28;20206;-74
2023/06/17 05:39:27;;;;;;;13.82;10.82;;;18.80;99.90;;;;;;5077871;28;20214;-74
2023/06/17 05:42:17;;;;;;;14.20;10.85;;;18.80;99.90;;;;;;5059399;28;20664;-74
2023/06/17 05:45:08;;;;;;;10.93;9.63;;;19.00;99.90;;;;;;5071338;28;20278;-73
2023/06/17 05:47:57;;;;;;;12.23;9.50;;;18.90;99.90;;;;;;5063210;28;20575;-74
2023/06/17 05:50:45;;;;;;;9.88;8.65;;;19.00;99.90;;;;;;5085636;28;20195;-73
2023/06/17 05:53:35;;;;;;;10.27;9.18;;;19.10;99.90;;;;;;5066104;28;20765;-73
2023/06/17 05:56:23;;;;;;;10.32;9.25;;;19.20;99.90;;;;;;5083543;28;20675;-73
2023/06/17 05:59:14;;;;;;;10.93;9.40;;;19.20;99.90;;;;;;5063885;28;20210;-72
2023/06/17 06:02:06;;;;;;;10.50;9.40;;;19.30;99.90;;;;;;5075004;28;20705;-72
2023/06/17 06:04:55;;;;;;;9.82;8.73;;;19.50;99.90;;;;;;5085045;28;20192;-73
2023/06/17 06:07:44;;;;;;;10.90;9.73;;;19.70;99.90;;;;;;5077882;28;20192;-72
2023/06/17 06:10:33;;;;;;;10.35;9.20;;;19.80;99.90;;;;;;5078576;28;20200;-72
2023/06/17 06:13:23;;;;;;;9.30;8.40;;;20.00;99.90;;;;;;5071506;28;20594;-74
2023/06/17 06:16:13;;;;;;;10.20;9.20;;;19.80;99.90;;;;;;5078914;28;20202;-73
2023/06/17 06:19:02;;;;;;;8.70;7.88;;;19.80;99.90;;;;;;5073670;28;20195;-72
2023/06/17 06:21:50;;;;;;;8.05;7.20;;;20.00;99.90;;;;;;5101326;28;20681;-72
2023/06/17 06:24:39;;;;;;;8.93;8.13;;;20.30;99.90;;;;;;5074342;28;20663;-72
2023/06/17 06:27:29;;;;;;;8.55;7.75;;;20.70;99.90;;;;;;5093256;28;20199;-75
2023/06/17 06:30:18;;;;;;;8.35;7.43;;;20.70;99.90;;;;;;5070585;28;20187;-74
2023/06/17 06:33:14;;;;;;;10.35;8.38;;;20.50;99.90;;;;;;5071005;28;20220;-73
2023/06/17 06:36:03;;;;;;;8.43;7.57;;;20.50;99.90;;;;;;5067083;28;20244;-72
2023/06/17 06:38:54;;;;;;;8.13;7.32;;;20.70;99.90;;;;;;5084534;28;20676;-74
2023/06/17 06:41:42;;;;;;;8.07;7.10;;;20.80;99.90;;;;;;5068764;28;20195;-74
2023/06/17 06:45:11;;;;;;;8.00;7.07;;;21.00;99.90;;;;;;5004160;28;20253;-73
2023/06/17 06:48:00;;;;;;;10.55;9.45;;;21.10;99.90;;;;;;4998151;28;20270;-72
2023/06/17 06:50:51;;;;;;;7.22;6.25;;;21.50;99.90;;;;;;5064818;28;20284;-73
2023/06/17 06:53:41;;;;;;;8.77;6.45;;;21.30;99.90;;;;;;5073964;28;20579;-72
2023/06/17 06:56:31;;;;;;;8.02;7.22;;;21.50;99.90;;;;;;5080698;28;20193;-72
2023/06/17 06:59:20;;;;;;;6.22;5.72;;;21.90;99.90;;;;;;5083339;28;20191;-73
2023/06/17 07:02:11;;;;;;;6.97;6.38;;;22.20;99.90;;;;;;5063812;28;20512;-72
2023/06/17 07:05:01;;;;;;;7.30;6.20;;;21.70;99.90;;;;;;5083656;28;20202;-72
2023/06/17 07:07:57;;;;;;;7.28;6.68;;;21.80;99.90;;;;;;5059348;28;20242;-72
2023/06/17 07:10:47;;;;;;;7.38;6.65;;;21.90;99.90;;;;;;5073935;28;20226;-72
2023/06/17 07:13:36;;;;;;;8.52;6.88;;;21.80;99.90;;;;;;5077611;28;20203;-73
2023/06/17 07:16:25;;;;;;;7.15;6.45;;;21.80;99.90;;;;;;5092341;28;20187;-72
2023/06/17 07:19:15;;;;;;;7.00;6.40;;;21.90;99.90;;;;;;5076291;28;20789;-73
2023/06/17 07:22:05;;;;;;;7.10;6.50;;;22.00;99.90;;;;;;5084596;28;20196;-73
2023/06/17 07:24:55;;;;;;;6.65;6.07;;;21.80;99.90;;;;;;5083787;28;20199;-73
2023/06/17 07:27:45;;;;;;;7.03;6.32;;;21.70;99.90;;;;;;5064695;28;20230;-72
2023/06/17 07:30:35;;;;;;;7.28;6.55;;;21.90;99.90;;;;;;5064134;28;20192;-72
2023/06/17 07:33:26;;;;;;;8.75;7.78;;;21.90;99.90;;;;;;5081214;28;20239;-73
2023/06/17 07:36:15;;;;;;;7.82;7.03;;;21.80;99.90;;;;;;5085824;28;20195;-72
2023/06/17 07:39:05;;;;;;;7.53;6.82;;;21.90;99.90;;;;;;5070379;28;20555;-73
2023/06/17 07:41:55;;;;;;;7.57;6.60;;;22.00;99.90;;;;;;5069271;28;20204;-73
2023/06/17 07:44:45;;;;;;;7.30;6.60;;;22.10;99.90;;;;;;5089768;28;20717;-74
2023/06/17 07:47:34;;;;;;;7.50;6.72;;;22.10;99.90;;;;;;5067796;28;20192;-74
2023/06/17 07:50:23;;;;;;;7.95;7.15;;;22.30;99.90;;;;;;5079562;28;20187;-74
2023/06/17 07:53:13;;;;;;;7.10;6.50;;;22.70;99.90;;;;;;5061635;28;20730;-73
2023/06/17 07:56:02;;;;;;;8.68;6.43;;;22.80;99.90;;;;;;5062432;28;21427;-73
2023/06/17 07:58:52;;;;;;;7.13;6.43;;;22.80;99.90;;;;;;5070018;28;20653;-73
2023/06/17 08:01:41;;;;;;;7.70;7.00;;;22.60;99.90;;;;;;5096013;28;20195;-74
2023/06/17 08:04:30;;;;;;;8.52;7.70;;;22.80;99.90;;;;;;5066050;28;20202;-72
2023/06/17 08:07:20;;;;;;;8.20;7.40;;;22.60;99.90;;;;;;5074330;28;20192;-74
2023/06/17 08:10:09;;;;;;;8.25;7.38;;;22.70;99.90;;;;;;5077726;28;20278;-73
2023/06/17 08:12:58;;;;;;;9.35;7.45;;;22.90;99.90;;;;;;5076374;28;20566;-74
2023/06/17 08:15:49;;;;;;;19.38;15.15;;;22.80;99.90;;;;;;5091902;28;20215;-74
2023/06/17 08:18:38;;;;;;;53.33;37.58;;;22.60;99.90;;;;;;5078099;28;20670;-73
2023/06/17 08:21:27;;;;;;;18.73;14.80;;;22.50;99.90;;;;;;5080402;28;20204;-74
2023/06/17 08:24:21;;;;;;;25.92;19.75;;;22.50;99.90;;;;;;5068520;28;20911;-74
2023/06/17 08:27:10;;;;;;;12.52;11.15;;;22.60;99.90;;;;;;5072389;28;20196;-74
2023/06/17 08:29:59;;;;;;;11.60;10.48;;;23.30;99.90;;;;;;5088775;28;20742;-74
2023/06/17 08:32:49;;;;;;;8.48;7.68;;;23.90;99.90;;;;;;5097793;28;21600;-74
2023/06/17 08:35:38;;;;;;;7.20;6.50;;;24.20;99.90;;;;;;5090453;28;20340;-73
2023/06/17 08:38:27;;;;;;;7.88;6.80;;;25.00;99.90;;;;;;5071485;28;20651;-73
2023/06/17 08:41:16;;;;;;;11.48;9.40;;;25.80;99.90;;;;;;5063485;28;20189;-73
2023/06/17 08:44:06;;;;;;;7.32;6.60;;;26.40;99.90;;;;;;5073675;28;20196;-73
2023/06/17 08:46:57;;;;;;;6.95;6.35;;;26.70;99.90;;;;;;5083484;28;20195;-74
2023/06/17 08:49:48;;;;;;;8.63;6.55;;;26.70;99.90;;;;;;5069905;28;20195;-74
2023/06/17 08:52:38;;;;;;;7.22;6.50;;;26.40;99.90;;;;;;5071617;28;20192;-73
2023/06/17 08:55:28;;;;;;;7.88;7.07;;;25.90;99.90;;;;;;5071047;28;20305;-77
2023/06/17 08:58:17;;;;;;;8.07;6.63;;;26.10;99.90;;;;;;5080424;28;20569;-74
2023/06/17 09:01:06;;;;;;;7.70;6.90;;;25.70;99.90;;;;;;5084735;28;20216;-74
2023/06/17 09:03:56;;;;;;;8.88;7.47;;;25.40;99.90;;;;;;5069435;28;20671;-74
2023/06/17 09:06:48;;;;;;;7.85;7.15;;;25.50;99.90;;;;;;5069433;28;20275;-73
2023/06/17 09:09:38;;;;;;;8.05;7.35;;;25.80;99.90;;;;;;5068098;28;20215;-73
2023/06/17 09:12:35;;;;;;;7.80;7.10;;;26.10;99.90;;;;;;5086808;28;20188;-73
2023/06/17 09:15:24;;;;;;;7.45;6.75;;;26.90;99.90;;;;;;5088957;28;20198;-73
2023/06/17 09:18:16;;;;;;;6.80;6.20;;;27.10;99.90;;;;;;5070774;28;20350;-72
2023/06/17 09:21:06;;;;;;;7.70;6.90;;;26.10;99.90;;;;;;5079367;28;20252;-72
2023/06/17 09:24:00;;;;;;;7.43;6.72;;;25.50;99.90;;;;;;5086614;28;20285;-73
2023/06/17 09:26:50;;;;;;;7.72;7.03;;;26.30;99.90;;;;;;5085388;28;20834;-74
2023/06/17 09:29:40;;;;;;;7.75;6.95;;;27.60;99.90;;;;;;5090050;28;20202;-72
2023/06/17 09:32:38;;;;;;;7.75;7.05;;;27.70;99.90;;;;;;5088280;28;20240;-73
2023/06/17 09:35:27;;;;;;;7.53;6.82;;;26.80;99.90;;;;;;5073754;28;20203;-73
2023/06/17 09:38:18;;;;;;;7.70;6.97;;;27.00;99.90;;;;;;5084921;28;20200;-72
2023/06/17 09:41:13;;;;;;;7.88;6.80;;;27.80;99.90;;;;;;5081102;28;20218;-73
2023/06/17 09:44:02;;;;;;;7.43;6.82;;;27.70;99.90;;;;;;5073729;28;20702;-72
2023/06/17 09:46:51;;;;;;;8.15;7.35;;;28.40;99.90;;;;;;5075845;28;20204;-73
2023/06/17 09:49:43;;;;;;;7.88;7.07;;;29.30;99.90;;;;;;5086068;28;20212;-73
2023/06/17 09:52:35;;;;;;;8.90;7.07;;;29.00;99.90;;;;;;5083251;28;20195;-71
2023/06/17 09:55:24;;;;;;;8.25;6.68;;;28.60;99.90;;;;;;5073896;28;20227;-72
2023/06/17 09:58:18;;;;;;;7.95;7.25;;;27.40;99.90;;;;;;5063703;28;20655;-73
2023/06/17 10:01:08;;;;;;;7.22;6.63;;;26.50;99.90;;;;;;5089178;28;20240;-72
2023/06/17 10:03:57;;;;;;;7.05;6.45;;;26.20;99.90;;;;;;5079375;28;20325;-73
2023/06/17 10:06:49;;;;;;;7.70;6.95;;;25.90;99.90;;;;;;5076473;28;20202;-73
2023/06/17 10:09:38;;;;;;;7.78;6.32;;;26.30;99.90;;;;;;5077692;28;20191;-73
2023/06/17 10:12:28;;;;;;;8.73;7.93;;;25.80;99.90;;;;;;5064742;28;20196;-73
2023/06/17 10:15:20;;;;;;;7.90;7.20;;;25.40;99.90;;;;;;5087038;28;20200;-72
2023/06/17 10:18:10;;;;;;;8.02;7.20;;;25.10;99.90;;;;;;5092230;28;20741;-72
2023/06/17 10:21:01;;;;;;;8.35;7.55;;;25.10;99.90;;;;;;5082675;28;20352;-73
2023/06/17 10:23:50;;;;;;;8.20;7.50;;;25.60;99.90;;;;;;5077410;28;20195;-73
2023/06/17 10:26:39;;;;;;;8.32;7.53;;;26.50;99.90;;;;;;5085008;28;20225;-72
2023/06/17 10:29:28;;;;;;;8.18;7.47;;;26.40;99.90;;;;;;5076933;28;20697;-72
2023/06/17 10:32:24;;;;;;;9.27;6.60;;;26.30;99.90;;;;;;5064174;28;20775;-74
2023/06/17 10:35:13;;;;;;;7.68;7.07;;;26.70;99.90;;;;;;5081712;28;20200;-73
2023/06/17 10:38:03;;;;;;;7.65;6.95;;;26.80;99.90;;;;;;5066402;28;20702;-72
2023/06/17 10:40:51;;;;;;;8.70;8.00;;;26.00;99.90;;;;;;5083871;28;20742;-72
2023/06/17 10:43:42;;;;;;;9.38;8.55;;;25.30;99.90;;;;;;5073421;28;20321;-73
2023/06/17 10:46:33;;;;;;;9.60;8.75;;;24.80;99.90;;;;;;5082424;28;20566;-73
2023/06/17 10:49:24;;;;;;;9.02;8.23;;;24.30;99.90;;;;;;5071469;28;20188;-73
2023/06/17 10:52:13;;;;;;;10.07;9.15;;;24.00;99.90;;;;;;5076156;28;20771;-72
2023/06/17 10:55:04;;;;;;;9.27;8.48;;;23.70;99.90;;;;;;5076448;28;20214;-72
2023/06/17 10:57:52;;;;;;;9.85;8.95;;;23.50;99.90;;;;;;5070089;28;20202;-73
2023/06/17 11:00:41;;;;;;;9.32;8.50;;;23.30;99.90;;;;;;5080688;28;20241;-73
2023/06/17 11:03:30;;;;;;;10.48;9.57;;;23.20;99.90;;;;;;5081835;28;20275;-72
2023/06/17 11:06:21;;;;;;;10.18;9.18;;;23.10;99.90;;;;;;5069122;28;20196;-72
2023/06/17 11:09:10;;;;;;;11.55;9.80;;;23.00;99.90;;;;;;5085108;28;20745;-78
2023/06/17 11:12:00;;;;;;;10.65;9.70;;;23.10;99.90;;;;;;5084246;28;20295;-76
2023/06/17 11:14:49;;;;;;;10.73;9.63;;;23.00;99.90;;;;;;5092515;28;20325;-72
2023/06/17 11:17:37;;;;;;;10.23;9.20;;;23.00;99.90;;;;;;5082069;28;20221;-73
2023/06/17 11:20:26;;;;;;;10.05;9.05;;;23.00;99.90;;;;;;5086103;28;20204;-73
2023/06/17 11:23:17;;;;;;;10.32;9.27;;;23.00;99.90;;;;;;5073121;28;20627;-73
2023/06/17 11:26:07;;;;;;;10.63;9.65;;;23.00;99.90;;;;;;5080016;28;20188;-74
2023/06/17 11:28:56;;;;;;;10.88;9.93;;;23.10;99.90;;;;;;5085527;28;20230;-73
2023/06/17 11:31:45;;;;;;;9.88;8.98;;;23.10;99.90;;;;;;5083307;28;20195;-73
2023/06/17 11:34:34;;;;;;;10.48;9.48;;;23.10;99.90;;;;;;5072815;28;20266;-74
2023/06/17 11:37:24;;;;;;;10.82;9.80;;;23.20;99.90;;;;;;5077863;28;20202;-73
2023/06/17 11:40:17;;;;;;;10.90;9.80;;;23.30;99.90;;;;;;5070186;28;20681;-74
2023/06/17 11:43:05;;;;;;;11.02;9.93;;;23.40;99.90;;;;;;5080028;28;20203;-71
2023/06/17 11:45:56;;;;;;;11.10;10.07;;;23.50;99.90;;;;;;5083488;28;20241;-74
2023/06/17 11:48:46;;;;;;;11.02;9.93;;;23.70;99.90;;;;;;5070379;28;20285;-74
2023/06/17 11:51:36;;;;;;;10.98;9.88;;;24.00;99.90;;;;;;5063898;28;20210;-73
2023/06/17 11:54:27;;;;;;;9.93;9.02;;;24.30;99.90;;;;;;5076195;28;20682;-76
2023/06/17 11:57:22;;;;;;;10.75;9.68;;;24.60;99.90;;;;;;5073076;28;20192;-74
2023/06/17 12:00:12;;;;;;;12.73;9.85;;;25.20;99.90;;;;;;5072382;28;20290;-72
2023/06/17 12:03:00;;;;;;;10.45;9.45;;;26.20;99.90;;;;;;5081230;28;20207;-73
2023/06/17 12:05:49;;;;;;;10.43;9.50;;;26.50;99.90;;;;;;5080627;28;20191;-74
2023/06/17 12:08:38;;;;;;;11.23;9.80;;;27.40;99.90;;;;;;5077368;28;20906;-74
2023/06/17 12:11:31;;;;;;;10.13;9.05;;;27.60;99.90;;;;;;5079077;28;20200;-73
2023/06/17 12:14:21;;;;;;;10.02;9.13;;;27.70;99.90;;;;;;5075436;28;21139;-74
2023/06/17 12:17:16;;;;;;;10.20;9.20;;;27.70;99.70;;;;;;5080987;28;20605;-74
2023/06/17 12:20:12;;;;;;;9.40;8.60;;;29.20;99.90;;;;;;5070310;28;20203;-73
2023/06/17 12:23:01;;;;;;;9.65;8.82;;;28.50;98.00;;;;;;5074874;28;20195;-73
2023/06/17 12:25:49;;;;;;;9.43;8.63;;;28.40;99.00;;;;;;5066662;28;20226;-74
2023/06/17 12:28:40;;;;;;;8.82;8.13;;;29.40;96.20;;;;;;5083719;28;20559;-74
2023/06/17 12:31:30;;;;;;;9.00;8.30;;;28.50;98.10;;;;;;5080209;28;20209;-73
2023/06/17 12:34:19;;;;;;;9.70;8.70;;;29.20;99.10;;;;;;5073310;28;20194;-72
2023/06/17 12:37:08;;;;;;;9.13;8.43;;;28.00;96.90;;;;;;5073651;28;20188;-73
2023/06/17 12:40:00;;;;;;;9.32;8.55;;;29.80;97.00;;;;;;5084176;28;20199;-73
2023/06/17 12:42:49;;;;;;;8.68;7.88;;;;;;;;;;5077140;28;20213;-74
2023/06/17 12:45:38;;;;;;;11.43;10.25;;;35.60;92.40;;;;;;5074920;28;20187;-72
2023/06/17 12:48:33;;;;;;;7.93;7.32;;;38.40;76.50;;;;;;5082177;28;20210;-75
2023/06/17 12:51:22;;;;;;;8.07;7.15;;;;;;;;;;5067976;28;20330;-76
2023/06/17 12:54:11;;;;;;;7.63;6.85;;;41.80;61.40;;;;;;5067311;28;20242;-79
2023/06/17 12:56:59;;;;;;;7.22;6.50;;;38.40;58.10;;;;;;5071081;28;20230;-78
2023/06/17 12:59:48;;;;;;;6.93;6.40;;;32.80;64.00;;;;;;5075137;28;20227;-76
2023/06/17 13:02:37;;;;;;;7.22;6.63;;;30.70;69.90;;;;;;5095411;28;20362;-78
2023/06/17 13:05:27;;;;;;;7.55;6.95;;;29.40;75.00;;;;;;5082291;28;20194;-83
2023/06/17 13:08:16;;;;;;;8.13;7.40;;;28.30;81.80;;;;;;5080846;28;20250;-78
2023/06/17 13:11:05;;;;;;;8.55;7.80;;;27.60;81.00;;;;;;5071896;28;20196;-77
2023/06/17 13:13:54;;;;;;;7.88;7.25;;;27.10;87.50;;;;;;5075302;28;20188;-77
2023/06/17 13:16:43;;;;;;;8.20;7.50;;;26.90;84.50;;;;;;5077441;28;20214;-76
2023/06/17 13:19:32;;;;;;;8.93;8.07;;;26.60;87.80;;;;;;5087434;28;20190;-78
2023/06/17 13:22:22;;;;;;;7.68;7.07;;;26.40;87.20;;;;;;5079232;28;20199;-77
2023/06/17 13:25:11;;;;;;;8.48;7.78;;;26.60;88.90;;;;;;5077924;28;20195;-78
2023/06/17 13:28:00;;;;;;;7.95;7.15;;;26.60;89.10;;;;;;5081694;28;20203;-76
2023/06/17 13:30:50;;;;;;;8.30;7.60;;;26.60;88.50;;;;;;5081214;28;20195;-78
2023/06/17 13:33:40;;;;;;;8.40;7.70;;;26.60;88.50;;;;;;5091196;28;20219;-78
2023/06/17 13:36:29;;;;;;;8.88;8.07;;;26.50;89.60;;;;;;5078701;28;20207;-78
2023/06/17 13:39:20;;;;;;;7.57;6.97;;;26.40;89.50;;;;;;5067498;28;20193;-76
2023/06/17 13:42:08;;;;;;;8.50;7.80;;;26.50;89.80;;;;;;5081774;28;20191;-78
2023/06/17 13:44:59;;;;;;;7.85;7.25;;;26.40;89.90;;;;;;5105201;28;20255;-79
2023/06/17 13:47:48;;;;;;;8.55;7.63;;;26.30;89.40;;;;;;5082315;28;20195;-79
2023/06/17 13:50:37;;;;;;;8.93;8.13;;;26.00;88.20;;;;;;5080652;28;20337;-77
2023/06/17 13:53:25;;;;;;;8.57;7.80;;;25.90;90.40;;;;;;5073400;28;20264;-78
2023/06/17 13:56:17;;;;;;;8.23;7.47;;;25.70;91.10;;;;;;5080516;28;20698;-79
2023/06/17 13:59:05;;;;;;;8.65;7.95;;;25.60;90.40;;;;;;5065907;28;20206;-77
2023/06/17 14:01:54;;;;;;;8.48;7.68;;;25.60;90.60;;;;;;5072876;28;20196;-78
2023/06/17 14:04:43;;;;;;;8.32;7.43;;;25.80;91.20;;;;;;5073330;28;20200;-78
2023/06/17 14:07:32;;;;;;;11.27;7.15;;;25.80;88.60;;;;;;5077354;28;20744;-81
2023/06/17 14:10:24;;;;;;;7.55;6.95;;;25.80;88.10;;;;;;5089565;28;20280;-77
2023/06/17 14:13:14;;;;;;;7.75;7.00;;;25.90;90.20;;;;;;5083344;28;20191;-79
2023/06/17 14:16:03;;;;;;;9.95;8.93;;;26.00;88.30;;;;;;5081384;28;20216;-78
2023/06/17 14:18:52;;;;;;;8.98;8.10;;;26.00;89.20;;;;;;5072250;28;20627;-78
2023/06/17 14:21:52;;;;;;;8.43;7.72;;;26.10;90.20;;;;;;5083693;28;20204;-79
2023/06/17 14:24:41;;;;;;;9.23;7.78;;;26.10;90.80;;;;;;5090454;28;20304;-78
2023/06/17 14:27:40;;;;;;;8.15;7.45;;;26.20;90.80;;;;;;5087332;28;20668;-78
2023/06/17 14:30:30;;;;;;;10.02;7.40;;;26.30;90.90;;;;;;5093201;28;20213;-78
2023/06/17 14:33:18;;;;;;;7.72;7.13;;;26.20;90.50;;;;;;5076788;28;20231;-77
2023/06/17 14:36:07;;;;;;;7.88;7.10;;;26.20;88.40;;;;;;5070592;28;20204;-77
2023/06/17 14:38:59;;;;;;;7.43;6.72;;;26.10;87.40;;;;;;5081664;28;20337;-78
2023/06/17 14:41:48;;;;;;;7.50;6.90;;;26.20;89.00;;;;;;5077968;28;20204;-78